createdAt,value
2022-08-02T00:00:26.729Z,47.60
2022-08-02T00:02:54.662Z,47.60
2022-08-02T00:05:22.582Z,47.60
2022-08-02T00:07:50.452Z,47.70
2022-08-02T00:10:18.464Z,47.70
2022-08-02T00:12:46.370Z,47.70
2022-08-02T00:15:16.242Z,47.70
2022-08-02T00:17:44.697Z,47.70
2022-08-02T00:20:14.503Z,47.60
2022-08-02T00:22:42.518Z,47.60
2022-08-02T00:25:10.915Z,47.60
2022-08-02T00:27:38.890Z,47.80
2022-08-02T00:30:07.709Z,47.70
2022-08-02T00:32:37.030Z,47.80
2022-08-02T00:35:05.442Z,48.50
2022-08-02T00:37:33.285Z,48.00
2022-08-02T00:40:02.136Z,47.90
2022-08-02T00:42:30.121Z,47.90
2022-08-02T00:44:58.796Z,48.00
2022-08-02T00:47:26.768Z,48.10
2022-08-02T00:49:56.104Z,48.10
2022-08-02T00:52:24.272Z,48.20
2022-08-02T00:54:52.209Z,48.20
2022-08-02T00:57:20.126Z,48.10
2022-08-02T00:59:48.982Z,48.20
2022-08-02T01:02:17.455Z,48.20
2022-08-02T01:04:46.306Z,48.20
2022-08-02T01:07:15.779Z,48.30
2022-08-02T01:09:44.066Z,48.40
2022-08-02T01:12:13.198Z,48.20
2022-08-02T01:14:42.984Z,48.20
2022-08-02T01:17:18.708Z,48.20
2022-08-02T01:19:52.577Z,48.40
2022-08-02T01:23:00.531Z,48.40
2022-08-02T01:25:42.567Z,48.60
2022-08-02T01:28:35.901Z,48.40
2022-08-02T01:31:09.187Z,48.70
2022-08-02T01:33:43.985Z,48.20
2022-08-02T01:36:15.050Z,48.40
2022-08-02T01:38:47.312Z,48.20
2022-08-02T01:41:19.514Z,48.40
2022-08-02T01:43:50.885Z,48.50
2022-08-02T01:46:19.927Z,48.50
2022-08-02T01:48:49.893Z,48.30
2022-08-02T01:51:19.719Z,48.30
2022-08-02T01:53:51.057Z,48.30
2022-08-02T01:56:20.513Z,48.40
2022-08-02T01:58:50.674Z,48.30
2022-08-02T02:01:22.333Z,48.40
2022-08-02T02:03:50.683Z,48.40
2022-08-02T02:06:20.694Z,48.20
2022-08-02T02:08:50.869Z,48.30
2022-08-02T02:12:11.804Z,48.30
2022-08-02T02:14:10.630Z,48.20
2022-08-02T02:16:38.991Z,48.30
2022-08-02T02:19:10.273Z,48.20
2022-08-02T02:21:38.938Z,48.40
2022-08-02T02:24:11.728Z,48.30
2022-08-02T02:26:42.935Z,48.40
2022-08-02T02:29:26.285Z,48.50
2022-08-02T02:31:55.908Z,48.50
2022-08-02T02:34:28.734Z,48.50
2022-08-02T02:37:00.446Z,48.60
2022-08-02T02:39:30.036Z,48.50
2022-08-02T02:42:03.358Z,48.50
2022-08-02T02:44:34.181Z,48.50
2022-08-02T02:47:03.937Z,48.50
2022-08-02T02:49:35.759Z,48.40
2022-08-02T02:52:04.961Z,48.50
2022-08-02T02:54:35.435Z,48.50
2022-08-02T02:57:05.456Z,48.50
2022-08-02T02:59:43.080Z,48.60
2022-08-02T03:02:18.772Z,48.70
2022-08-02T03:04:56.318Z,48.50
2022-08-02T03:07:25.991Z,48.60
2022-08-02T03:09:55.046Z,48.60
2022-08-02T03:12:30.547Z,48.80
2022-08-02T03:15:03.724Z,48.90
2022-08-02T03:17:43.004Z,49.00
2022-08-02T03:20:13.271Z,49.40
2022-08-02T03:22:41.368Z,49.10
2022-08-02T03:25:10.284Z,49.00
2022-08-02T03:27:38.426Z,49.00
2022-08-02T03:30:10.688Z,49.10
2022-08-02T03:32:40.374Z,49.30
2022-08-02T03:35:11.438Z,49.20
2022-08-02T03:37:40.010Z,49.30
2022-08-02T03:40:11.197Z,49.20
2022-08-02T03:42:40.141Z,49.30
2022-08-02T03:45:13.259Z,49.30
2022-08-02T03:47:42.722Z,49.50
2022-08-02T03:50:13.235Z,49.30
2022-08-02T03:52:43.387Z,49.50
2022-08-02T03:55:12.598Z,49.40
2022-08-02T03:57:41.820Z,49.50
2022-08-02T04:00:13.980Z,49.40
2022-08-02T04:02:41.952Z,49.60
2022-08-02T04:05:10.381Z,49.40
2022-08-02T04:08:02.435Z,49.50
2022-08-02T04:10:27.031Z,49.50
2022-08-02T04:12:55.478Z,49.30
2022-08-02T04:15:25.665Z,49.40
2022-08-02T04:17:57.648Z,49.50
2022-08-02T04:20:30.883Z,49.50
2022-08-02T04:23:02.436Z,49.50
2022-08-02T04:25:35.439Z,49.40
2022-08-02T04:28:16.709Z,49.40
2022-08-02T04:30:48.108Z,49.40
2022-08-02T04:33:16.476Z,49.50
2022-08-02T04:35:45.007Z,49.50
2022-08-02T04:38:14.649Z,49.50
2022-08-02T04:40:50.708Z,49.70
2022-08-02T04:43:18.607Z,49.70
2022-08-02T04:45:49.356Z,49.60
2022-08-02T04:48:17.242Z,49.90
2022-08-02T04:50:45.193Z,49.80
2022-08-02T04:53:13.204Z,49.80
2022-08-02T04:55:41.166Z,50.00
2022-08-02T04:58:36.896Z,50.20
2022-08-02T05:00:58.372Z,50.20
2022-08-02T05:03:26.407Z,50.30
2022-08-02T05:05:54.261Z,50.30
2022-08-02T05:08:22.200Z,50.40
2022-08-02T05:10:50.130Z,50.40
2022-08-02T05:13:18.037Z,50.20
2022-08-02T05:15:46.020Z,50.30
2022-08-02T05:18:15.368Z,50.20
2022-08-02T05:20:43.661Z,50.30
2022-08-02T05:23:11.706Z,50.10
2022-08-02T05:25:39.576Z,50.10
2022-08-02T05:28:11.481Z,50.60
2022-08-02T05:30:39.857Z,50.00
2022-08-02T05:33:08.474Z,50.10
2022-08-02T05:35:37.741Z,50.20
2022-08-02T05:38:05.687Z,50.50
2022-08-02T05:40:38.175Z,50.50
2022-08-02T05:43:23.234Z,50.70
2022-08-02T05:45:53.502Z,50.70
2022-08-02T05:48:21.962Z,50.80
2022-08-02T05:50:56.399Z,51.10
2022-08-02T05:53:31.919Z,51.60
2022-08-02T05:56:08.905Z,51.70
2022-08-02T05:58:43.553Z,52.00
2022-08-02T06:01:14.465Z,52.20
2022-08-02T06:03:51.438Z,52.20
2022-08-02T06:06:24.147Z,52.50
2022-08-02T06:08:55.831Z,52.60
2022-08-02T06:11:25.509Z,52.60
2022-08-02T06:13:54.274Z,52.70
2022-08-02T06:16:32.226Z,52.70
2022-08-02T06:19:01.801Z,53.00
2022-08-02T06:22:31.972Z,53.30
2022-08-02T06:24:20.393Z,53.60
2022-08-02T06:26:52.555Z,53.90
2022-08-02T06:29:23.409Z,54.00
2022-08-02T06:31:53.798Z,53.70
2022-08-02T06:34:21.788Z,53.50
2022-08-02T06:36:58.687Z,53.10
2022-08-02T06:39:34.213Z,53.50
2022-08-02T06:42:08.798Z,53.90
2022-08-02T06:44:49.571Z,54.10
2022-08-02T06:47:18.929Z,54.90
2022-08-02T06:49:51.714Z,55.70
2022-08-02T06:52:28.218Z,56.50
2022-08-02T06:54:57.646Z,58.00
2022-08-02T06:57:25.576Z,61.20
2022-08-02T06:59:53.633Z,64.80
2022-08-02T07:02:21.680Z,67.20
2022-08-02T07:04:49.701Z,66.50
2022-08-02T07:07:17.630Z,66.10
2022-08-02T07:09:56.648Z,66.00
2022-08-02T07:12:31.154Z,64.10
2022-08-02T07:14:59.820Z,59.60
2022-08-02T07:17:27.857Z,61.00
2022-08-02T07:19:55.796Z,58.90
2022-08-02T07:22:24.480Z,58.90
2022-08-02T07:24:54.654Z,58.80
2022-08-02T07:27:22.674Z,60.20
2022-08-02T07:29:50.725Z,57.30
2022-08-02T07:32:19.432Z,56.30
2022-08-02T07:34:52.682Z,55.50
2022-08-02T07:40:15.161Z,54.10
2022-08-02T07:42:49.794Z,53.50
2022-08-02T07:45:17.762Z,53.20
2022-08-02T07:47:46.551Z,52.20
2022-08-02T07:50:15.891Z,51.20
2022-08-02T07:55:15.785Z,50.80
2022-08-02T07:57:46.739Z,51.10
2022-08-02T08:00:17.261Z,51.40
2022-08-02T08:02:45.989Z,51.60
2022-08-02T08:05:14.764Z,50.80
2022-08-02T08:07:42.739Z,49.80
2022-08-02T08:10:11.476Z,48.70
2022-08-02T08:12:40.902Z,47.90
2022-08-02T08:15:10.174Z,47.90
2022-08-02T08:17:38.664Z,48.10
2022-08-02T08:20:07.774Z,48.50
2022-08-02T08:22:35.662Z,48.70
2022-08-02T08:25:04.033Z,47.90
2022-08-02T08:27:32.165Z,48.50
2022-08-02T08:30:01.431Z,48.40
2022-08-02T08:32:29.346Z,47.50
2022-08-02T08:34:57.302Z,47.10
2022-08-02T08:37:25.246Z,47.10
2022-08-02T08:39:58.021Z,44.60
2022-08-02T08:42:27.427Z,42.00
2022-08-02T08:44:56.424Z,40.70
2022-08-02T08:47:34.727Z,41.60
2022-08-02T08:50:05.541Z,42.30
2022-08-02T08:52:36.925Z,43.00
2022-08-02T08:55:06.466Z,43.50
2022-08-02T08:57:39.422Z,44.20
2022-08-02T09:00:08.682Z,44.50
2022-08-02T09:02:38.227Z,45.20
2022-08-02T09:05:08.115Z,45.10
2022-08-02T09:07:36.079Z,44.70
2022-08-02T09:10:36.623Z,44.60
2022-08-02T09:13:43.505Z,46.30
2022-08-02T09:16:12.706Z,44.20
2022-08-02T09:18:46.108Z,43.70
2022-08-02T09:21:16.476Z,43.20
2022-08-02T09:23:46.743Z,43.40
2022-08-02T09:26:16.279Z,43.20
2022-08-02T09:28:46.312Z,42.90
2022-08-02T09:31:16.113Z,42.80
2022-08-02T09:33:47.521Z,42.70
2022-08-02T09:36:17.297Z,42.30
2022-08-02T09:38:54.508Z,42.20
2022-08-02T09:41:24.374Z,42.00
2022-08-02T09:44:05.242Z,41.20
2022-08-02T09:46:37.511Z,40.10
2022-08-02T09:49:09.420Z,39.60
2022-08-02T09:51:39.356Z,38.80
2022-08-02T09:56:43.464Z,39.40
2022-08-02T09:59:12.095Z,37.30
2022-08-02T10:01:42.569Z,37.30
2022-08-02T10:04:23.918Z,37.10
2022-08-02T10:06:53.602Z,36.70
2022-08-02T10:09:22.628Z,36.70
2022-08-02T10:11:52.065Z,36.40
2022-08-02T10:14:21.199Z,36.70
2022-08-02T10:16:49.101Z,36.80
2022-08-02T10:19:17.517Z,36.20
2022-08-02T10:22:11.193Z,36.60
2022-08-02T10:24:45.933Z,36.90
2022-08-02T10:27:19.707Z,37.00
2022-08-02T10:29:55.351Z,37.50
2022-08-02T10:32:30.534Z,37.50
2022-08-02T10:35:19.039Z,37.90
2022-08-02T10:37:54.201Z,37.60
2022-08-02T10:40:26.491Z,37.70
2022-08-02T10:42:56.098Z,38.00
2022-08-02T10:45:24.324Z,37.90
2022-08-02T10:48:00.478Z,37.50
2022-08-02T10:50:54.782Z,37.80
2022-08-02T10:53:29.793Z,37.40
2022-08-02T10:56:00.012Z,38.00
2022-08-02T10:58:30.149Z,38.10
2022-08-02T11:00:58.951Z,38.80
2022-08-02T11:03:41.761Z,39.00
2022-08-02T11:06:25.294Z,39.20
2022-08-02T11:09:32.269Z,39.30
2022-08-02T11:12:03.454Z,39.10
2022-08-02T11:14:32.162Z,38.90
2022-08-02T11:17:07.840Z,39.00
2022-08-02T11:19:36.356Z,39.10
2022-08-02T11:22:12.647Z,39.10
2022-08-02T11:24:43.979Z,39.10
2022-08-02T11:27:22.134Z,39.40
2022-08-02T11:29:50.537Z,39.70
2022-08-02T11:32:20.233Z,39.80
2022-08-02T11:34:50.548Z,39.70
2022-08-02T11:37:29.199Z,39.70
2022-08-02T11:39:58.667Z,40.00
2022-08-02T11:42:33.116Z,39.80
2022-08-02T11:45:01.486Z,39.80
2022-08-02T11:47:31.445Z,39.60
2022-08-02T11:50:06.546Z,39.60
2022-08-02T11:52:35.080Z,39.70
2022-08-02T11:55:05.365Z,39.40
2022-08-02T11:58:04.260Z,39.20
2022-08-02T12:00:23.728Z,39.00
2022-08-02T12:02:58.635Z,39.20
2022-08-02T12:05:44.685Z,39.50
2022-08-02T12:08:14.934Z,39.80
2022-08-02T12:10:50.569Z,39.80
2022-08-02T12:13:18.494Z,40.00
2022-08-02T12:15:47.793Z,40.00
2022-08-02T12:18:34.941Z,39.70
2022-08-02T12:21:03.267Z,40.00
2022-08-02T12:23:31.376Z,40.30
2022-08-02T12:26:04.862Z,40.30
2022-08-02T12:28:35.509Z,40.70
2022-08-02T12:31:03.640Z,40.10
2022-08-02T12:33:46.490Z,40.10
2022-08-02T12:36:18.056Z,39.90
2022-08-02T12:38:52.828Z,39.80
2022-08-02T12:41:31.870Z,39.90
2022-08-02T12:44:01.093Z,40.10
2022-08-02T12:46:29.138Z,40.00
2022-08-02T12:49:16.832Z,40.00
2022-08-02T12:51:54.821Z,40.20
2022-08-02T12:54:32.433Z,39.80
2022-08-02T12:57:11.683Z,39.60
2022-08-02T12:59:40.994Z,39.40
2022-08-02T13:02:12.039Z,39.20
2022-08-02T13:04:41.590Z,39.20
2022-08-02T13:07:18.601Z,39.30
2022-08-02T13:09:48.111Z,39.10
2022-08-02T13:12:17.928Z,39.10
2022-08-02T13:14:46.001Z,39.50
2022-08-02T13:17:13.965Z,39.40
2022-08-02T13:19:42.770Z,39.40
2022-08-02T13:22:10.928Z,39.50
2022-08-02T13:24:55.993Z,39.40
2022-08-02T13:27:27.294Z,39.60
2022-08-02T13:29:56.682Z,39.50
2022-08-02T13:32:25.671Z,39.50
2022-08-02T13:34:54.277Z,39.80
2022-08-02T13:37:22.465Z,40.30
2022-08-02T13:40:18.547Z,40.10
2022-08-02T13:42:39.650Z,40.30
2022-08-02T13:45:13.421Z,40.20
2022-08-02T13:47:57.372Z,40.10
2022-08-02T13:50:30.959Z,40.10
2022-08-02T13:52:58.830Z,40.20
2022-08-02T13:55:26.766Z,40.10
2022-08-02T13:57:56.026Z,40.20
2022-08-02T14:00:34.855Z,40.40
2022-08-02T14:03:04.526Z,40.30
2022-08-02T14:05:39.538Z,40.40
2022-08-02T14:08:17.169Z,40.80
2022-08-02T14:10:45.916Z,40.30
2022-08-02T14:13:15.266Z,40.30
2022-08-02T14:15:43.835Z,40.30
2022-08-02T14:18:11.848Z,40.20
2022-08-02T14:20:39.773Z,40.20
2022-08-02T14:23:07.721Z,40.30
2022-08-02T14:25:35.789Z,40.20
2022-08-02T14:28:03.974Z,40.20
2022-08-02T14:30:33.536Z,40.10
2022-08-02T14:33:01.561Z,40.00
2022-08-02T14:35:29.447Z,40.10
2022-08-02T14:37:57.441Z,40.00
2022-08-02T14:40:31.431Z,40.10
2022-08-02T14:43:00.195Z,40.20
2022-08-02T14:45:40.316Z,40.00
2022-08-02T14:48:11.321Z,39.80
2022-08-02T14:50:40.157Z,39.70
2022-08-02T14:53:12.644Z,39.60
2022-08-02T14:55:41.616Z,39.60
2022-08-02T14:58:09.567Z,39.50
2022-08-02T15:00:40.941Z,39.60
2022-08-02T15:03:10.852Z,39.50
2022-08-02T15:05:38.885Z,39.50
2022-08-02T15:08:07.390Z,39.60
2022-08-02T15:10:35.328Z,39.60
2022-08-02T15:13:03.209Z,39.70
2022-08-02T15:15:31.214Z,39.50
2022-08-02T15:18:00.066Z,39.50
2022-08-02T15:20:29.718Z,39.40
2022-08-02T15:23:00.518Z,39.60
2022-08-02T15:25:28.560Z,39.80
2022-08-02T15:27:56.448Z,39.80
2022-08-02T15:30:24.390Z,39.80
2022-08-02T15:32:53.045Z,39.60
2022-08-02T15:35:21.799Z,39.80
2022-08-02T15:37:51.140Z,39.80
2022-08-02T15:40:19.112Z,39.90
2022-08-02T15:42:47.341Z,40.00
2022-08-02T15:45:15.817Z,40.00
2022-08-02T15:47:48.099Z,39.90
2022-08-02T15:50:18.844Z,39.80
2022-08-02T15:52:46.847Z,39.70
2022-08-02T15:55:16.174Z,39.60
2022-08-02T15:57:44.083Z,39.60
2022-08-02T16:00:15.330Z,39.70
2022-08-02T16:02:47.601Z,39.70
2022-08-02T16:05:17.736Z,39.60
2022-08-02T16:07:46.228Z,39.70
2022-08-02T16:10:16.224Z,39.80
2022-08-02T16:12:44.321Z,40.00
2022-08-02T16:15:13.453Z,40.00
2022-08-02T16:17:49.268Z,39.90
2022-08-02T16:20:22.749Z,39.90
2022-08-02T16:22:50.650Z,39.70
2022-08-02T16:25:20.094Z,39.50
2022-08-02T16:28:06.026Z,39.60
2022-08-02T16:30:35.686Z,39.60
2022-08-02T16:33:03.737Z,39.70
2022-08-02T16:35:31.770Z,39.80
2022-08-02T16:37:59.674Z,39.80
2022-08-02T16:40:28.985Z,40.00
2022-08-02T16:42:57.073Z,40.50
2022-08-02T16:45:25.061Z,40.70
2022-08-02T16:47:56.591Z,40.20
2022-08-02T16:50:28.973Z,40.10
2022-08-02T16:55:51.876Z,40.40
2022-08-02T16:58:21.274Z,40.00
2022-08-02T17:00:49.219Z,39.80
2022-08-02T17:03:17.180Z,40.70
2022-08-02T17:05:55.963Z,39.90
2022-08-02T17:08:31.616Z,40.20
2022-08-02T17:11:03.312Z,40.80
2022-08-02T17:13:32.098Z,40.80
2022-08-02T17:16:20.568Z,40.60
2022-08-02T17:18:50.657Z,40.90
2022-08-02T17:21:18.607Z,41.30
2022-08-02T17:24:05.189Z,40.90
2022-08-02T17:26:35.984Z,40.90
2022-08-02T17:29:15.387Z,40.90
2022-08-02T17:32:02.352Z,41.40
2022-08-02T17:34:33.349Z,40.90
2022-08-02T17:37:01.688Z,41.00
2022-08-02T17:39:43.109Z,41.30
2022-08-02T17:42:23.452Z,41.40
2022-08-02T17:44:52.403Z,41.50
2022-08-02T17:47:20.561Z,41.70
2022-08-02T17:49:49.889Z,41.70
2022-08-02T17:52:52.002Z,41.70
2022-08-02T17:55:12.803Z,41.60
2022-08-02T17:57:57.149Z,41.70
2022-08-02T18:00:27.046Z,41.90
2022-08-02T18:02:55.741Z,41.90
2022-08-02T18:05:40.371Z,42.00
2022-08-02T18:08:14.143Z,42.10
2022-08-02T18:10:43.222Z,42.00
2022-08-02T18:13:13.448Z,42.10
2022-08-02T18:15:45.755Z,42.00
2022-08-02T18:18:14.843Z,42.00
2022-08-02T18:20:43.016Z,42.10
2022-08-02T18:23:13.708Z,42.10
2022-08-02T18:25:46.015Z,42.30
2022-08-02T18:28:17.078Z,42.40
2022-08-02T18:30:45.545Z,42.50
2022-08-02T18:33:59.169Z,42.50
2022-08-02T18:36:01.381Z,42.50
2022-08-02T18:38:31.021Z,42.30
2022-08-02T18:41:02.325Z,42.30
2022-08-02T18:43:34.607Z,42.50
2022-08-02T18:46:15.300Z,42.70
2022-08-02T18:48:46.622Z,42.70
2022-08-02T18:51:18.670Z,42.70
2022-08-02T18:53:50.932Z,42.70
2022-08-02T18:56:24.213Z,42.70
2022-08-02T18:58:55.225Z,42.80
2022-08-02T19:01:31.824Z,43.00
2022-08-02T19:04:00.850Z,42.90
2022-08-02T19:06:29.352Z,42.90
2022-08-02T19:09:05.803Z,42.90
2022-08-02T19:11:48.326Z,42.80
2022-08-02T19:14:27.290Z,42.80
2022-08-02T19:16:56.717Z,43.00
2022-08-02T19:22:18.377Z,42.90
2022-08-02T19:24:51.523Z,42.90
2022-08-02T19:27:25.839Z,43.10
2022-08-02T19:29:55.577Z,43.10
2022-08-02T19:32:40.471Z,43.30
2022-08-02T19:35:19.208Z,43.30
2022-08-02T19:37:59.447Z,43.40
2022-08-02T19:40:28.840Z,43.40
2022-08-02T19:44:21.245Z,43.50
2022-08-02T19:45:49.712Z,43.60
2022-08-02T19:48:23.942Z,43.60
2022-08-02T19:50:56.230Z,43.60
2022-08-02T19:53:28.774Z,43.60
2022-08-02T19:56:00.687Z,43.40
2022-08-02T19:58:32.424Z,43.40
2022-08-02T20:01:01.826Z,43.30
2022-08-02T20:03:52.114Z,43.50
2022-08-02T20:06:18.082Z,43.60
2022-08-02T20:08:53.421Z,43.50
2022-08-02T20:11:25.127Z,43.60
2022-08-02T20:13:54.756Z,43.50
2022-08-02T20:16:27.982Z,43.70
2022-08-02T20:18:56.543Z,43.80
2022-08-02T20:21:35.764Z,43.90
2022-08-02T20:24:05.675Z,44.00
2022-08-02T20:26:35.248Z,44.00
2022-08-02T20:29:03.913Z,44.00
2022-08-02T20:31:34.288Z,43.90
2022-08-02T20:34:02.153Z,44.00
2022-08-02T20:36:30.328Z,43.90
2022-08-02T20:38:58.233Z,43.80
2022-08-02T20:41:37.329Z,43.80
2022-08-02T20:44:15.296Z,43.90
2022-08-02T20:46:45.929Z,43.80
2022-08-02T20:49:21.607Z,44.10
2022-08-02T20:51:53.917Z,43.90
2022-08-02T20:54:22.456Z,43.80
2022-08-02T20:56:50.713Z,43.90
2022-08-02T20:59:21.066Z,43.90
2022-08-02T21:01:57.269Z,44.00
2022-08-02T21:04:26.332Z,44.10
2022-08-02T21:06:55.757Z,44.10
2022-08-02T21:09:52.843Z,44.10
2022-08-02T21:12:12.852Z,44.00
2022-08-02T21:14:40.844Z,43.90
2022-08-02T21:17:11.147Z,44.00
2022-08-02T21:19:44.368Z,44.10
2022-08-02T21:22:12.582Z,44.10
2022-08-02T21:24:40.613Z,44.20
2022-08-02T21:27:51.709Z,44.20
2022-08-02T21:29:56.536Z,44.30
2022-08-02T21:32:25.762Z,44.20
2022-08-02T21:34:54.620Z,44.40
2022-08-02T21:37:22.522Z,44.30
2022-08-02T21:40:08.640Z,44.30
2022-08-02T21:42:37.317Z,44.30
2022-08-02T21:45:17.216Z,44.30
2022-08-02T21:47:46.888Z,44.30
2022-08-02T21:50:16.285Z,44.30
2022-08-02T21:52:52.086Z,44.20
2022-08-02T21:55:24.347Z,44.70
2022-08-02T21:58:09.319Z,44.30
2022-08-02T22:00:37.284Z,44.20
2022-08-02T22:03:21.424Z,44.40
2022-08-02T22:05:50.845Z,44.40
2022-08-02T22:08:18.808Z,44.10
2022-08-02T22:11:03.217Z,44.20
2022-08-02T22:13:38.635Z,44.20
2022-08-02T22:16:15.412Z,44.20
2022-08-02T22:18:50.378Z,44.30
2022-08-02T22:21:20.457Z,44.40
2022-08-02T22:23:51.357Z,44.20
2022-08-02T22:26:19.815Z,44.20
2022-08-02T22:28:51.155Z,44.30
2022-08-02T22:31:40.342Z,44.30
2022-08-02T22:34:27.030Z,44.30
2022-08-02T22:36:58.564Z,44.30
2022-08-02T22:39:26.459Z,44.20
2022-08-02T22:42:06.003Z,44.30
2022-08-02T22:44:35.168Z,44.30
2022-08-02T22:47:06.800Z,44.70
2022-08-02T22:49:44.584Z,44.20
2022-08-02T22:52:15.153Z,44.30
2022-08-02T22:54:47.983Z,44.20
2022-08-02T22:57:15.856Z,44.30
2022-08-02T22:58:35.329Z,40.50
2022-08-02T22:58:47.515Z,42.90
2022-08-02T22:59:43.825Z,44.30
2022-08-02T23:02:11.866Z,44.40
2022-08-02T23:04:41.180Z,44.50
2022-08-02T23:07:09.055Z,44.60
2022-08-02T23:09:37.148Z,44.50
2022-08-02T23:12:06.031Z,44.50
2022-08-02T23:14:33.896Z,44.70
2022-08-02T23:17:19.423Z,44.70
2022-08-02T23:19:54.324Z,44.70
2022-08-02T23:22:29.359Z,44.50
2022-08-02T23:25:00.686Z,44.60
2022-08-02T23:27:29.081Z,44.60
2022-08-02T23:29:57.247Z,44.70
2022-08-02T23:32:25.770Z,44.80
2022-08-02T23:34:55.575Z,44.70
2022-08-02T23:37:23.520Z,44.60
2022-08-02T23:39:51.841Z,44.50
2022-08-02T23:42:19.740Z,44.60
2022-08-02T23:47:29.522Z,44.60
2022-08-02T23:49:58.749Z,44.60
2022-08-02T23:52:26.649Z,44.70
2022-08-02T23:54:54.528Z,44.70
2022-08-02T23:57:22.417Z,44.70
2022-08-02T23:59:51.539Z,44.70
